Impacts METAR Board
IDs:

KPIT - Pittsburgh Intl, PA, US

Updated at: 2100 UTC 08 Aug 2020
Potential Impact None Slight Moderate High
Time 08/09Z 08/10Z 08/11Z 08/12Z 08/13Z 08/14Z 08/15Z 08/16Z 08/17Z 08/18Z 08/19Z 08/20Z 08/21Z
Temp64 64 63 65 68 72 76 77 81 81 80 82 81
Dewpt59 58 58 58 59 61 60 59 57 58 57 58 56
Altim30.15 30.16 30.18 30.19 30.20 30.20 30.21 30.20 30.19 30.19 30.17 30.15 30.15
VIS10 10 10 10 10 10 10 10 10 10 10 10 10
CIG-- -- -- -- 70 65 -- -- -- -- -- -- --
CoverSCTSCTFEWFEWBKNBKNFEWFEWFEWSCTSCTFEWFEW
FltCatVFRVFRVFRVFRVFRVFRVFRVFRVFRVFRVFRVFRVFR
WX--------------------------
WDir34036034040100031003303300300
WSpd4 5 5 5 6 0 0 4 5 11 5 4 5
WGst-- -- -- -- -- -- -- -- -- -- -- -- --
Raw hourly METARs
KPIT 080851Z 34004KT 10SM SCT065 18/15 A3015 RMK AO2 SLP210 T01780150 56002
KPIT 080951Z 36005KT 10SM SCT060 18/14 A3016 RMK AO2 SLP213 T01780144
KPIT 081051Z 34005KT 10SM FEW060 FEW250 17/14 A3018 RMK AO2 SLP219 T01720144
KPIT 081151Z 04005KT 10SM FEW065 FEW250 18/14 A3019 RMK AO2 SLP224 T01830144 10194 20167 53013
KPIT 081251Z 01006KT 10SM BKN070 BKN250 20/15 A3020 RMK AO2 SLP227 T02000150 VISNO SE $
KPIT 081351Z 00000KT 10SM BKN065 BKN250 22/16 A3020 RMK AO2 SLP226 T02220161 VISNO SE $
KPIT 081451Z 00000KT 10SM FEW065 FEW250 24/16 A3021 RMK AO2 SLP227 T02440156 51004 $
KPIT 081551Z 31004KT 10SM FEW060 FEW250 25/15 A3020 RMK AO2 SLP226 T02500150 $
KPIT 081651Z VRB05KT 10SM FEW060 27/14 A3019 RMK AO2 SLP222 T02720139
KPIT 081751Z 33011KT 10SM SCT050 27/14 A3019 RMK AO2 SLP222 6//// T02720144 10272 20183
KPIT 081851Z 33005KT 10SM SCT055 27/14 A3017 RMK AO2 SLP216 T02670139
KPIT 081951Z VRB04KT 10SM FEW060 28/14 A3015 RMK AO2 SLP210 T02780144 $
KPIT 082051Z 30005KT 10SM FEW055 27/13 A3015 RMK AO2 SLP208 T02720133 56013 $



Page loaded:  21:27 UTC  |   02:27 PM Pacific  |   03:27 PM Mountain  |   04:27 PM Central  |   05:27 PM Eastern

 

ADVISORIES

FORECASTS

FORECASTS

OBSERVATIONS

USER TOOLS

ABOUT US